Latest Weather Observations for Hamilton Island

IDQ60801

Issued at 4:05 pm EST Thursday 21 August 2014 (issued every 30 minutes, with the page automatically refreshed every 10 minutes)

About weather observations | Map of weather stations | Latest weather observations for QLD | Other Formats
Station Details ID: 033106 Name: HAMILTON ISLAND AIRPORT Lat: -20.37 Lon: 148.95 Height: 58.66 m
Data from the previous 72 hours. | See also: Recent months at Hamilton Island
Date/Time
EST
Temp
°C
App
Temp
°C
Dew
Point
Rel
Hum
%
Delta-T
°C
Wind Press
QNH
hPa
Press
MSL
hPa
Rain
since 9 am
mm
Dir
 
Spd
km/h
Gust
km/h
Spd
kts
Gust
kts
21/04:00pm 20.0 17.7 15.6 76 2.6 SE 22 30 12 16 1017.2 - 0.0
21/03:30pm 19.8 16.6 15.4 76 2.6 SSE 26 32 14 17 1017.1 - 0.0
21/03:00pm 20.5 17.3 15.3 72 3.1 SE 26 30 14 16 1017.0 1016.9 0.0
21/02:30pm 20.1 17.2 15.1 73 2.9 SSE 24 30 13 16 1017.1 - 0.0
21/02:00pm 20.6 17.6 14.7 69 3.5 SSE 24 30 13 16 1017.3 - 0.0
21/01:30pm 20.7 17.7 14.8 69 3.5 SSE 24 30 13 16 1017.6 - 0.0
21/01:00pm 20.0 16.5 13.5 66 3.7 SSE 24 30 13 16 1018.1 - 0.0
21/12:30pm 20.5 17.0 13.5 64 4.0 SSE 24 30 13 16 1018.5 - 0.0
21/12:00pm 20.9 17.6 14.1 65 3.9 SSE 24 30 13 16 1018.9 1018.8 0.0
21/11:30am 20.2 16.9 14.1 68 3.5 SSE 24 32 13 17 1019.4 - 0.0
21/11:00am 20.2 17.0 14.3 69 3.4 SSE 24 30 13 16 1019.8 - 0.0
21/10:30am 20.8 17.7 14.5 67 3.7 SSE 24 30 13 16 1020.1 - 0.0
21/10:00am 20.4 17.2 14.3 68 3.6 SSE 24 30 13 16 1020.1 - 0.0
21/09:30am 20.5 17.4 14.4 68 3.6 SSE 24 28 13 15 1020.2 - 0.0
21/09:00am 20.4 17.0 14.7 70 3.3 SSE 26 30 14 16 1019.9 1019.7 0.0
21/08:30am 20.1 16.5 14.2 69 3.4 SSE 26 30 14 16 1019.7 - 0.0
21/08:00am 19.6 15.9 13.8 69 3.3 SSE 26 30 14 16 1019.2 - 0.0
21/07:30am 19.4 15.8 14.2 72 3.0 SSE 26 32 14 17 1018.9 - 0.0
21/07:00am 18.9 15.2 14.0 73 2.8 SSE 26 30 14 16 1018.7 - 0.0
21/06:30am 18.3 15.1 14.2 77 2.4 SSE 24 30 13 16 1018.3 - 0.0
21/06:00am 18.3 14.8 14.6 79 2.1 SSE 26 32 14 17 1018.1 1018.0 0.0
21/05:30am 18.4 14.4 14.1 76 2.5 SE 28 32 15 17 1017.7 - 0.0
21/05:00am 18.4 14.1 14.5 78 2.3 SE 30 33 16 18 1017.3 - 0.0
21/04:30am 18.4 14.5 14.5 78 2.3 SSE 28 32 15 17 1017.1 - 0.0
21/04:00am 18.6 15.4 14.3 76 2.5 SSE 24 28 13 15 1017.4 - 0.0
21/03:30am 18.7 15.4 12.9 69 3.3 SE 22 26 12 14 1017.5 - 0.0
21/03:00am 18.8 15.1 12.8 68 3.4 SE 24 28 13 15 1017.5 1017.4 0.0
21/02:30am 18.8 15.0 12.5 67 3.5 SE 24 28 13 15 1017.7 - 0.0
21/02:00am 18.7 15.8 12.9 69 3.3 SE 20 22 11 12 1018.1 - 0.0
21/01:30am 19.1 15.5 13.1 68 3.4 SE 24 28 13 15 1018.4 - 0.0
21/01:00am 19.2 15.3 13.4 69 3.3 ESE 26 32 14 17 1018.5 - 0.0
21/12:30am 19.3 15.9 12.6 65 3.8 E 22 26 12 14 1018.9 - 0.0
21/12:00am 19.4 15.9 12.2 63 4.0 E 22 28 12 15 1018.9 1018.8 0.0
 
Date/Time
EST
Temp
°C
App
Temp
°C
Dew
Point
Rel
Hum
%
Delta-T
°C
Wind Press
QNH
hPa
Press
MSL
hPa
Rain
since 9 am
mm
Dir
 
Spd
km/h
Gust
km/h
Spd
kts
Gust
kts
20/11:30pm 19.5 15.8 11.5 60 4.4 E 22 28 12 15 1019.5 - 0.0
20/11:00pm 19.4 16.1 11.7 61 4.3 E 20 24 11 13 1019.7 - 0.0
20/10:30pm 19.4 15.6 11.2 59 4.5 E 22 28 12 15 1019.6 - 0.0
20/10:00pm 19.4 16.2 11.4 60 4.4 E 19 22 10 12 1019.7 - 0.0
20/09:30pm 19.4 15.5 10.9 58 4.6 E 22 30 12 16 1019.9 - 0.0
20/09:00pm 19.6 15.2 11.6 60 4.4 E 26 32 14 17 1019.9 1019.7 0.0
20/08:30pm 19.6 15.6 11.9 61 4.3 E 24 32 13 17 1019.7 - 0.0
20/08:00pm 19.6 14.8 11.6 60 4.4 E 28 33 15 18 1019.6 - 0.0
20/07:30pm 19.7 14.2 10.7 56 4.9 E 30 35 16 19 1019.1 - 0.0
20/07:00pm 19.8 13.7 9.7 52 5.4 E 32 37 17 20 1018.6 - 0.0
20/06:30pm 19.6 14.3 12.6 64 3.9 E 32 35 17 19 1018.4 - 0.0
20/06:00pm 19.4 14.6 12.9 66 3.7 E 30 35 16 19 1018.0 1017.9 0.0
20/05:30pm 19.5 15.0 13.7 69 3.3 ESE 30 35 16 19 1017.8 - 0.0
20/05:00pm 19.5 14.4 12.0 62 4.2 ESE 30 37 16 20 1017.5 - 0.0
20/04:30pm 19.7 14.9 11.7 60 4.4 ESE 28 33 15 18 1017.2 - 0.0
20/04:00pm 20.1 15.7 11.8 59 4.6 ESE 26 32 14 17 1017.0 - 0.0
20/03:30pm 20.4 16.1 12.1 59 4.6 ESE 26 32 14 17 1016.9 - 0.0
20/03:00pm 20.8 16.7 11.4 55 5.2 ESE 24 30 13 16 1017.0 1016.9 0.0
20/02:30pm 20.9 16.8 11.3 54 5.3 ESE 24 32 13 17 1017.1 - 0.0
20/02:00pm 21.1 17.6 13.3 61 4.5 SE 24 30 13 16 1017.3 - 0.0
20/01:30pm 21.6 18.3 12.7 57 5.1 SE 22 26 12 14 1017.4 - 0.0
20/01:00pm 21.2 18.0 13.1 60 4.6 SSE 22 26 12 14 1017.8 - 0.0
20/12:30pm 20.2 17.3 12.9 63 4.1 SSE 20 24 11 13 1018.3 - 0.0
20/12:00pm 20.3 17.1 13.0 63 4.1 SSE 22 26 12 14 1018.6 1018.5 0.0
20/11:30am 20.0 16.2 12.3 61 4.3 SSE 24 28 13 15 1019.0 - 0.0
20/11:00am 19.8 16.0 12.3 62 4.2 SSE 24 30 13 16 1019.7 - 0.0
20/10:30am 19.4 15.2 11.2 59 4.5 SSE 24 32 13 17 1019.9 - 0.0
20/10:00am 19.7 15.0 10.7 56 4.9 SSE 26 32 14 17 1019.8 - 0.0
20/09:30am 20.0 16.2 12.3 61 4.3 SSE 24 32 13 17 1020.2 - 0.0
20/09:00am 19.1 16.2 12.4 65 3.7 S 19 24 10 13 1020.1 1019.9 0.0
20/08:30am 18.7 16.2 14.0 74 2.7 SSE 20 30 11 16 1019.9 - 0.0
20/08:00am 18.9 16.7 13.3 70 3.2 SSE 17 24 9 13 1019.6 - 0.0
20/07:30am 18.6 18.6 14.1 75 2.6 ESE 7 13 4 7 1018.9 - 0.0
20/07:00am 17.5 16.8 13.2 76 2.4 S 9 11 5 6 1018.6 - 0.0
20/06:30am 16.7 16.2 12.7 77 2.2 SW 7 9 4 5 1018.3 - 0.0
20/06:00am 16.7 15.5 12.8 78 2.2 SW 11 13 6 7 1018.0 1017.9 0.0
20/05:30am 16.6 16.6 13.5 82 1.7 SW 6 7 3 4 1018.0 - 0.0
20/05:00am 17.0 16.7 13.3 79 2.1 SSE 7 9 4 5 1017.7 - 0.0
20/04:30am 16.6 16.6 13.5 82 1.7 SW 6 7 3 4 1017.7 - 0.0
20/04:00am 16.5 16.7 14.3 87 1.3 WSW 6 6 3 3 1017.7 - 0.0
20/03:30am 16.6 17.9 14.2 86 1.4 CALM 0 0 0 0 1017.6 - 0.0
20/03:00am 16.8 17.8 13.3 80 2.0 CALM 0 0 0 0 1017.6 1017.5 0.0
20/02:30am 16.7 17.8 13.4 81 1.9 CALM 0 0 0 0 1017.6 - 0.0
20/02:00am 16.8 16.4 13.1 79 2.1 NW 7 11 4 6 1017.6 - 0.0
20/01:30am 16.7 15.6 13.2 80 2.0 NNW 11 11 6 6 1017.8 - 0.0
20/01:00am 16.9 15.8 13.0 78 2.2 NNW 11 11 6 6 1018.1 - 0.0
20/12:30am 17.1 15.8 12.6 75 2.5 NNW 11 11 6 6 1018.2 - 0.0
20/12:00am 16.9 15.1 12.0 73 2.7 NNW 13 15 7 8 1018.5 1018.4 0.0
 
Date/Time
EST
Temp
°C
App
Temp
°C
Dew
Point
Rel
Hum
%
Delta-T
°C
Wind Press
QNH
hPa
Press
MSL
hPa
Rain
since 9 am
mm
Dir
 
Spd
km/h
Gust
km/h
Spd
kts
Gust
kts
19/11:30pm 17.2 15.4 12.1 72 2.8 NNW 13 13 7 7 1018.5 - 0.0
19/11:00pm 17.2 15.8 12.1 72 2.8 NW 11 13 6 7 1018.4 - 0.0
19/10:30pm 17.3 17.0 13.4 78 2.2 NNW 7 9 4 5 1018.4 - 0.0
19/10:00pm 18.0 18.2 10.6 62 4.0 CALM 0 0 0 0 1018.3 - 0.0
19/09:30pm 17.6 18.0 11.4 67 3.4 CALM 0 0 0 0 1018.2 - 0.0
19/09:00pm 18.0 17.2 11.8 67 3.4 N 7 9 4 5 1018.2 1018.1 0.0
19/08:30pm 18.6 17.3 9.9 57 4.6 NNE 7 9 4 5 1018.0 - 0.0
19/08:00pm 18.3 17.5 9.6 57 4.6 NE 4 7 2 4 1017.9 - 0.0
19/07:30pm 18.7 17.4 9.8 56 4.7 NNE 7 7 4 4 1017.6 - 0.0
19/07:00pm 18.2 17.1 10.8 62 4.0 NE 7 9 4 5 1017.0 - 0.0
19/06:30pm 18.6 16.5 9.9 57 4.6 NE 11 13 6 7 1016.6 - 0.0
19/06:00pm 18.7 16.1 9.5 55 4.9 ENE 13 15 7 8 1016.2 1016.1 0.0
19/05:30pm 19.5 15.9 8.5 49 5.7 ENE 17 20 9 11 1016.0 - 0.0
19/05:00pm 19.8 16.6 8.5 48 5.9 ENE 15 20 8 11 1015.8 - 0.0
19/04:30pm 20.0 16.4 8.4 47 6.1 E 17 20 9 11 1015.5 - 0.0
19/04:00pm 20.1 16.2 8.8 48 5.9 E 19 20 10 11 1015.3 - 0.0
19/03:30pm 20.1 16.0 8.8 48 5.9 E 20 26 11 14 1015.2 - 0.0
19/03:00pm 20.6 16.3 7.9 44 6.6 E 20 26 11 14 1015.3 1015.2 0.0
19/02:30pm 20.8 17.0 7.4 42 6.9 E 17 20 9 11 1015.7 - 0.0
19/02:00pm 21.1 17.3 7.7 42 6.9 SE 17 19 9 10 1016.2 - 0.0
19/01:30pm 21.1 17.0 8.0 43 6.8 SE 19 24 10 13 1016.7 - 0.0
19/01:00pm 21.5 17.3 7.3 40 7.3 SE 19 22 10 12 1016.9 - 0.0
19/12:30pm 21.1 16.8 7.7 42 6.9 SSE 20 24 11 13 1017.4 - 0.0
19/12:00pm 21.5 17.3 8.1 42 7.0 SSE 20 26 11 14 1017.9 1017.8 0.0
19/11:30am 20.9 16.5 7.5 42 6.9 SSE 20 24 11 13 1018.5 - 0.0
19/11:00am 21.0 16.0 6.5 39 7.3 SSE 22 28 12 15 1019.0 - 0.0
19/10:30am 20.7 15.7 6.6 40 7.1 SSE 22 26 12 14 1019.8 - 0.0
19/10:00am 20.6 15.6 7.9 44 6.6 SSE 24 30 13 16 1019.8 - 0.0
19/09:30am 20.2 15.9 7.9 45 6.4 SSE 20 26 11 14 1020.0 - 0.0
19/09:00am 20.0 16.8 9.9 52 5.4 SSE 17 20 9 11 1020.2 1020.0 0.0
19/08:30am 19.9 16.3 10.0 53 5.3 SSE 19 22 10 12 1019.8 - 0.0
19/08:00am 19.6 16.6 10.6 56 4.9 SSE 17 20 9 11 1019.6 - 0.0
19/07:30am 19.2 16.1 8.8 51 5.4 SSE 15 19 8 10 1019.2 - 0.0
19/07:00am 18.1 16.4 10.0 59 4.3 S 9 15 5 8 1018.8 - 0.0
19/06:30am 17.5 16.2 11.1 66 3.5 WSW 9 13 5 7 1018.4 - 0.0
19/06:00am 17.2 16.6 12.3 73 2.7 W 7 9 4 5 1018.1 1018.0 0.0
19/05:30am 17.5 17.0 13.8 79 2.1 WNW 9 11 5 6 1017.8 - 0.0
19/05:00am 17.7 16.6 13.0 74 2.6 NW 11 13 6 7 1017.5 - 0.0
19/04:30am 17.5 16.6 13.8 79 2.1 WNW 11 15 6 8 1017.3 - 0.0
19/04:00am 17.8 16.4 14.5 81 1.9 NW 15 17 8 9 1017.1 - 0.0
19/03:30am 17.7 16.1 13.8 78 2.2 NNW 15 19 8 10 1017.1 - 0.0
19/03:00am 17.7 16.4 13.8 78 2.2 N 13 17 7 9 1017.0 1016.9 0.0
19/02:30am 17.9 16.3 14.0 78 2.2 NNW 15 19 8 10 1017.0 - 0.0
19/02:00am 18.1 16.5 14.0 77 2.3 NW 15 22 8 12 1017.1 - 0.0
19/01:30am 18.1 16.3 14.4 79 2.1 NNW 17 20 9 11 1017.1 - 0.0
19/01:00am 18.0 15.6 13.7 76 2.5 NNW 19 24 10 13 1017.2 - 0.0
19/12:30am 17.8 15.9 13.1 74 2.6 NNW 15 19 8 10 1017.5 - 0.0
19/12:00am 17.8 16.3 13.1 74 2.6 NNW 13 17 7 9 1017.6 1017.5 0.0
 
Date/Time
EST
Temp
°C
App
Temp
°C
Dew
Point
Rel
Hum
%
Delta-T
°C
Wind Press
QNH
hPa
Press
MSL
hPa
Rain
since 9 am
mm
Dir
 
Spd
km/h
Gust
km/h
Spd
kts
Gust
kts
18/11:30pm 17.4 15.3 13.5 78 2.2 NNW 17 19 9 10 1017.7 - 0.0
18/11:00pm 17.4 16.2 14.1 81 1.9 NW 13 15 7 8 1017.8 - 0.0
18/10:30pm 17.9 16.6 12.6 71 3.0 NNW 11 13 6 7 1017.8 - 0.0
18/10:00pm 17.8 15.9 11.8 68 3.3 NNW 13 15 7 8 1017.7 - 0.0
18/09:30pm 17.7 15.4 11.7 68 3.3 NNW 15 17 8 9 1017.6 - 0.0
18/09:00pm 17.8 16.7 13.1 74 2.6 NNW 11 15 6 8 1017.5 1017.4 0.0
18/08:30pm 18.1 16.3 13.4 74 2.7 NW 15 17 8 9 1017.3 - 0.0
18/08:00pm 18.1 16.2 11.7 66 3.5 NNW 13 17 7 9 1017.0 - 0.0
18/07:30pm 18.3 16.2 11.1 63 3.9 NNW 13 15 7 8 1016.8 - 0.0
18/07:00pm 18.3 17.5 11.6 65 3.7 NNW 7 11 4 6 1016.4 - 0.0
18/06:30pm 18.6 17.5 10.7 60 4.3 N 7 11 4 6 1016.0 - 0.0
18/06:00pm 19.0 17.7 11.1 60 4.3 NNE 9 11 5 6 1015.7 1015.6 0.0
18/05:30pm 19.7 16.6 10.4 55 5.0 NNE 17 20 9 11 1015.5 - 0.0
18/05:00pm 20.7 18.8 10.5 52 5.6 NNE 11 17 6 9 1015.2 - 0.0
18/04:30pm 21.8 20.5 11.2 51 5.9 NNE 9 15 5 8 1015.1 - 0.0

Other Formats:

Comma delimited format used in spreadsheet applications
http://www.bom.gov.au/fwo/IDQ60801/IDQ60801.94368.axf

JavaScript Object Notation format (JSON) in row-major order
http://www.bom.gov.au/fwo/IDQ60801/IDQ60801.94368.json